createdAt,value
2022-10-16T00:01:46.633Z,17.10
2022-10-16T00:04:15.038Z,15.90
2022-10-16T00:06:43.225Z,14.50
2022-10-16T00:09:11.978Z,14.50
2022-10-16T00:11:41.775Z,14.20
2022-10-16T00:14:15.790Z,14.40
2022-10-16T00:16:44.126Z,14.10
2022-10-16T00:19:13.635Z,14.40
2022-10-16T00:21:41.849Z,13.20
2022-10-16T00:24:11.397Z,13.80
2022-10-16T00:26:41.543Z,13.30
2022-10-16T00:29:10.922Z,12.50
2022-10-16T00:31:39.174Z,12.30
2022-10-16T00:34:07.364Z,11.90
2022-10-16T00:36:35.546Z,9.80
2022-10-16T00:39:04.765Z,11.00
2022-10-16T00:41:33.564Z,10.20
2022-10-16T00:44:22.871Z,10.00
2022-10-16T00:46:51.832Z,9.90
2022-10-16T00:49:21.994Z,8.80
2022-10-16T00:51:55.211Z,10.00
2022-10-16T00:54:32.585Z,8.30
2022-10-16T00:57:04.142Z,10.00
2022-10-16T00:59:37.121Z,9.80
2022-10-16T01:02:07.758Z,10.50
2022-10-16T01:04:41.665Z,8.90
2022-10-16T01:07:31.474Z,9.00
2022-10-16T01:10:27.987Z,8.90
2022-10-16T01:13:02.403Z,8.90
2022-10-16T01:15:58.919Z,9.00
2022-10-16T01:18:40.933Z,10.00
2022-10-16T01:21:23.334Z,9.70
2022-10-16T01:24:27.450Z,9.60
2022-10-16T01:27:20.418Z,8.90
2022-10-16T01:30:02.106Z,9.00
2022-10-16T01:32:30.498Z,10.20
2022-10-16T01:35:01.358Z,10.00
2022-10-16T01:37:50.060Z,9.80
2022-10-16T01:40:22.429Z,8.00
2022-10-16T01:43:06.484Z,8.30
2022-10-16T01:45:37.024Z,8.10
2022-10-16T01:48:10.807Z,9.80
2022-10-16T01:50:42.987Z,9.00
2022-10-16T01:53:14.867Z,9.00
2022-10-16T01:55:47.330Z,9.10
2022-10-16T01:58:16.279Z,9.20
2022-10-16T02:00:48.048Z,8.10
2022-10-16T02:03:21.056Z,7.70
2022-10-16T02:05:57.742Z,8.40
2022-10-16T02:08:29.780Z,9.00
2022-10-16T02:11:01.390Z,9.00
2022-10-16T02:13:39.189Z,8.80
2022-10-16T02:16:08.738Z,8.20
2022-10-16T02:18:37.036Z,8.50
2022-10-16T02:21:24.763Z,7.70
2022-10-16T02:24:14.018Z,7.70
2022-10-16T02:26:52.945Z,9.50
2022-10-16T02:29:25.994Z,9.00
2022-10-16T02:32:00.163Z,9.10
2022-10-16T02:34:31.800Z,9.50
2022-10-16T02:37:03.234Z,8.60
2022-10-16T02:39:32.251Z,8.30
2022-10-16T02:42:00.467Z,7.30
2022-10-16T02:44:28.613Z,8.40
2022-10-16T02:46:56.849Z,9.00
2022-10-16T02:49:25.003Z,9.00
2022-10-16T02:51:53.105Z,9.30
2022-10-16T02:54:21.437Z,8.60
2022-10-16T02:56:49.567Z,8.30
2022-10-16T02:59:17.734Z,8.10
2022-10-16T03:01:45.913Z,8.80
2022-10-16T03:04:14.068Z,8.90
2022-10-16T03:06:42.263Z,9.20
2022-10-16T03:09:10.522Z,8.30
2022-10-16T03:11:38.681Z,8.80
2022-10-16T03:14:06.899Z,7.20
2022-10-16T03:16:35.166Z,8.20
2022-10-16T03:19:03.413Z,8.10
2022-10-16T03:21:31.637Z,8.40
2022-10-16T03:23:59.859Z,8.50
2022-10-16T03:26:28.083Z,8.60
2022-10-16T03:28:56.309Z,8.90
2022-10-16T03:31:24.598Z,9.80
2022-10-16T03:33:52.713Z,8.40
2022-10-16T03:36:20.863Z,7.30
2022-10-16T03:38:49.072Z,7.80
2022-10-16T03:41:17.243Z,9.00
2022-10-16T03:43:45.414Z,8.60
2022-10-16T03:46:13.578Z,9.50
2022-10-16T03:48:41.880Z,8.80
2022-10-16T03:51:10.358Z,9.20
2022-10-16T03:53:38.593Z,8.60
2022-10-16T03:56:07.199Z,8.90
2022-10-16T03:58:35.421Z,7.80
2022-10-16T04:01:03.815Z,8.60
2022-10-16T04:03:32.049Z,8.70
2022-10-16T04:06:00.205Z,9.50
2022-10-16T04:08:28.478Z,9.50
2022-10-16T04:10:56.649Z,9.10
2022-10-16T04:13:25.015Z,8.30
2022-10-16T04:15:53.268Z,7.50
2022-10-16T04:18:21.410Z,7.40
2022-10-16T04:20:49.503Z,8.20
2022-10-16T04:23:17.838Z,8.80
2022-10-16T04:25:45.947Z,9.80
2022-10-16T04:28:14.093Z,8.40
2022-10-16T04:30:42.303Z,8.20
2022-10-16T04:33:11.173Z,7.90
2022-10-16T04:35:39.564Z,7.90
2022-10-16T04:38:07.829Z,7.80
2022-10-16T04:40:37.853Z,8.40
2022-10-16T04:43:06.940Z,8.90
2022-10-16T04:45:35.180Z,9.40
2022-10-16T04:48:03.407Z,8.30
2022-10-16T04:50:31.546Z,8.80
2022-10-16T04:53:08.558Z,8.70
2022-10-16T04:55:37.336Z,8.20
2022-10-16T04:58:05.754Z,7.90
2022-10-16T05:00:34.547Z,9.10
2022-10-16T05:03:02.869Z,9.40
2022-10-16T05:05:30.985Z,8.90
2022-10-16T05:07:59.190Z,9.30
2022-10-16T05:10:27.522Z,8.10
2022-10-16T05:12:55.645Z,8.60
2022-10-16T05:15:26.194Z,9.40
2022-10-16T05:17:56.061Z,8.30
2022-10-16T05:20:24.921Z,9.50
2022-10-16T05:22:53.110Z,9.30
2022-10-16T05:25:21.275Z,9.60
2022-10-16T05:27:50.788Z,8.30
2022-10-16T05:30:19.713Z,7.90
2022-10-16T05:32:50.269Z,8.40
2022-10-16T05:35:20.488Z,8.90
2022-10-16T05:37:49.234Z,8.30
2022-10-16T05:40:18.079Z,8.80
2022-10-16T05:42:46.849Z,10.10
2022-10-16T05:45:15.013Z,9.20
2022-10-16T05:47:43.605Z,9.70
2022-10-16T05:50:11.866Z,8.60
2022-10-16T05:52:40.019Z,8.10
2022-10-16T05:55:08.637Z,9.00
2022-10-16T05:57:36.893Z,10.00
2022-10-16T06:00:06.126Z,9.50
2022-10-16T06:02:41.000Z,9.10
2022-10-16T06:05:09.525Z,8.80
2022-10-16T06:07:37.946Z,9.40
2022-10-16T06:10:06.890Z,8.40
2022-10-16T06:12:35.044Z,8.20
2022-10-16T06:15:03.502Z,9.80
2022-10-16T06:17:31.697Z,8.80
2022-10-16T06:19:59.814Z,9.40
2022-10-16T06:22:28.057Z,9.50
2022-10-16T06:24:56.308Z,8.90
2022-10-16T06:27:24.570Z,9.70
2022-10-16T06:29:53.039Z,9.10
2022-10-16T06:32:21.990Z,9.40
2022-10-16T06:34:50.140Z,7.70
2022-10-16T06:37:18.279Z,9.20
2022-10-16T06:39:46.495Z,9.70
2022-10-16T06:42:14.701Z,9.60
2022-10-16T06:44:43.027Z,9.60
2022-10-16T06:47:12.454Z,9.40
2022-10-16T06:49:40.649Z,9.20
2022-10-16T06:52:08.862Z,8.50
2022-10-16T06:54:42.292Z,9.40
2022-10-16T06:57:11.007Z,8.00
2022-10-16T06:59:39.279Z,9.20
2022-10-16T07:02:08.477Z,9.60
2022-10-16T07:04:37.873Z,9.00
2022-10-16T07:07:08.583Z,9.80
2022-10-16T07:09:38.103Z,8.70
2022-10-16T07:12:06.319Z,8.70
2022-10-16T07:14:34.518Z,8.40
2022-10-16T07:17:03.939Z,8.80
2022-10-16T07:19:34.512Z,7.70
2022-10-16T07:22:04.295Z,8.60
2022-10-16T07:24:32.822Z,8.80
2022-10-16T07:27:01.100Z,8.50
2022-10-16T07:29:29.327Z,8.40
2022-10-16T07:31:57.686Z,9.30
2022-10-16T07:34:25.866Z,8.90
2022-10-16T07:36:54.120Z,8.40
2022-10-16T07:39:22.286Z,7.90
2022-10-16T07:41:50.475Z,8.20
2022-10-16T07:44:18.633Z,8.50
2022-10-16T07:46:48.114Z,9.00
2022-10-16T07:49:16.279Z,8.60
2022-10-16T07:51:44.427Z,8.40
2022-10-16T07:54:12.797Z,8.40
2022-10-16T07:56:43.701Z,8.60
2022-10-16T07:59:12.506Z,8.10
2022-10-16T08:01:43.248Z,8.80
2022-10-16T08:04:11.629Z,9.00
2022-10-16T08:06:41.931Z,8.80
2022-10-16T08:09:10.195Z,8.80
2022-10-16T08:11:38.345Z,9.70
2022-10-16T08:14:06.614Z,7.90
2022-10-16T08:16:34.753Z,9.10
2022-10-16T08:19:03.161Z,10.30
2022-10-16T08:21:31.389Z,9.30
2022-10-16T08:24:00.217Z,8.60
2022-10-16T08:26:28.521Z,8.70
2022-10-16T08:28:57.373Z,8.70
2022-10-16T08:31:27.378Z,8.10
2022-10-16T08:33:55.896Z,7.60
2022-10-16T08:36:24.193Z,7.90
2022-10-16T08:38:54.685Z,7.50
2022-10-16T08:41:35.949Z,7.00
2022-10-16T08:44:25.685Z,8.10
2022-10-16T08:47:11.735Z,7.50
2022-10-16T08:49:44.213Z,7.50
2022-10-16T08:52:15.138Z,8.10
2022-10-16T08:54:48.444Z,7.10
2022-10-16T08:57:25.710Z,7.20
2022-10-16T08:59:56.561Z,7.80
2022-10-16T09:02:28.329Z,7.90
2022-10-16T09:05:16.146Z,8.60
2022-10-16T09:10:54.957Z,7.30
2022-10-16T09:14:13.870Z,7.10
2022-10-16T09:16:49.095Z,6.60
2022-10-16T09:19:37.661Z,7.60
2022-10-16T09:22:19.444Z,6.60
2022-10-16T09:24:47.659Z,7.40
2022-10-16T09:27:16.070Z,9.20
2022-10-16T09:29:44.206Z,7.00
2022-10-16T09:32:19.310Z,7.20
2022-10-16T09:34:58.727Z,7.30
2022-10-16T09:37:27.398Z,8.20
2022-10-16T09:39:56.255Z,7.60
2022-10-16T09:42:32.378Z,7.00
2022-10-16T09:45:00.642Z,6.50
2022-10-16T09:47:30.868Z,7.10
2022-10-16T09:50:07.320Z,7.30
2022-10-16T09:52:35.611Z,6.50
2022-10-16T09:55:17.720Z,6.60
2022-10-16T09:57:53.590Z,5.60
2022-10-16T10:00:23.902Z,6.70
2022-10-16T10:05:30.153Z,6.10
2022-10-16T10:08:01.121Z,6.90
2022-10-16T10:10:33.062Z,6.40
2022-10-16T10:13:02.572Z,6.20
2022-10-16T10:15:42.621Z,7.20
2022-10-16T10:18:23.139Z,6.50
2022-10-16T10:23:35.978Z,6.90
2022-10-16T10:26:06.929Z,6.10
2022-10-16T10:28:54.515Z,6.50
2022-10-16T10:31:29.603Z,6.20
2022-10-16T10:34:25.243Z,6.70
2022-10-16T10:37:24.235Z,6.80
2022-10-16T10:40:21.546Z,6.70
2022-10-16T10:43:05.994Z,6.20
2022-10-16T10:45:44.350Z,6.30
2022-10-16T10:48:12.543Z,6.30
2022-10-16T10:50:50.482Z,6.00
2022-10-16T10:53:30.827Z,6.60
2022-10-16T10:56:26.325Z,7.00
2022-10-16T10:59:13.539Z,7.80
2022-10-16T11:01:56.839Z,8.40
2022-10-16T11:04:56.928Z,8.90
2022-10-16T11:07:32.371Z,7.60
2022-10-16T11:10:16.421Z,7.40
2022-10-16T11:12:53.949Z,7.20
2022-10-16T11:15:32.270Z,9.50
2022-10-16T11:18:08.087Z,7.80
2022-10-16T11:20:43.902Z,6.90
2022-10-16T11:23:19.632Z,6.70
2022-10-16T11:25:51.275Z,8.00
2022-10-16T11:28:49.387Z,6.80
2022-10-16T11:31:24.794Z,7.90
2022-10-16T11:33:58.739Z,8.60
2022-10-16T11:36:34.343Z,7.20
2022-10-16T11:39:17.581Z,7.60
2022-10-16T11:41:51.757Z,7.80
2022-10-16T11:44:57.487Z,8.10
2022-10-16T11:48:05.501Z,7.60
2022-10-16T11:51:04.371Z,7.60
2022-10-16T11:54:00.803Z,7.70
2022-10-16T11:56:32.700Z,7.20
2022-10-16T11:59:08.866Z,8.20
2022-10-16T12:01:44.343Z,8.20
2022-10-16T12:04:34.002Z,8.10
2022-10-16T12:07:15.721Z,16.30
2022-10-16T12:09:44.186Z,12.40
2022-10-16T12:12:31.458Z,10.70
2022-10-16T12:15:40.888Z,8.20
2022-10-16T12:18:25.821Z,7.20
2022-10-16T12:21:07.904Z,7.20
2022-10-16T12:23:48.998Z,7.20
2022-10-16T12:26:29.897Z,8.30
2022-10-16T12:29:16.064Z,8.60
2022-10-16T12:31:57.733Z,7.60
2022-10-16T12:34:35.704Z,6.90
2022-10-16T12:37:24.618Z,7.40
2022-10-16T12:39:57.822Z,7.40
2022-10-16T12:42:29.420Z,7.10
2022-10-16T12:44:58.257Z,7.60
2022-10-16T12:47:32.593Z,7.80
2022-10-16T12:50:03.200Z,8.00
2022-10-16T12:52:40.393Z,7.20
2022-10-16T12:58:17.472Z,6.80
2022-10-16T13:00:59.539Z,7.10
2022-10-16T13:04:00.528Z,7.60
2022-10-16T13:06:47.461Z,7.70
2022-10-16T13:09:50.713Z,7.30
2022-10-16T13:12:18.846Z,7.90
2022-10-16T13:15:03.869Z,7.30
2022-10-16T13:17:44.393Z,7.40
2022-10-16T13:20:37.210Z,7.80
2022-10-16T13:23:08.226Z,6.80
2022-10-16T13:25:52.462Z,7.20
2022-10-16T13:28:24.281Z,7.30
2022-10-16T13:30:55.826Z,6.90
2022-10-16T13:33:40.878Z,7.20
2022-10-16T13:36:22.582Z,7.50
2022-10-16T13:39:22.717Z,7.50
2022-10-16T13:42:09.087Z,6.70
2022-10-16T13:44:47.207Z,7.30
2022-10-16T13:47:20.886Z,6.80
2022-10-16T13:50:05.437Z,6.50
2022-10-16T13:55:04.353Z,6.70
2022-10-16T13:57:32.530Z,6.90
2022-10-16T14:00:00.865Z,7.40
2022-10-16T14:02:40.435Z,7.60
2022-10-16T14:05:15.154Z,7.20
2022-10-16T14:07:43.972Z,6.90
2022-10-16T14:10:24.067Z,7.50
2022-10-16T14:13:18.177Z,6.10
2022-10-16T14:15:52.602Z,6.90
2022-10-16T14:18:33.283Z,6.80
2022-10-16T14:21:08.235Z,6.70
2022-10-16T14:23:42.007Z,6.00
2022-10-16T14:26:10.161Z,7.00
2022-10-16T14:28:41.637Z,6.60
2022-10-16T14:31:37.550Z,5.90
2022-10-16T14:34:25.570Z,5.60
2022-10-16T14:36:53.870Z,5.70
2022-10-16T14:39:25.025Z,5.70
2022-10-16T14:41:56.874Z,6.70
2022-10-16T14:44:34.074Z,6.70
2022-10-16T14:47:17.162Z,6.20
2022-10-16T14:49:45.366Z,6.50
2022-10-16T14:52:15.943Z,5.90
2022-10-16T14:54:44.135Z,6.10
2022-10-16T14:57:19.625Z,6.20
2022-10-16T14:59:49.977Z,5.90
2022-10-16T15:02:32.064Z,6.80
2022-10-16T15:05:17.318Z,7.00
2022-10-16T15:07:46.925Z,6.10
2022-10-16T15:10:16.035Z,6.30
2022-10-16T15:12:44.690Z,6.40
2022-10-16T15:15:25.205Z,6.80
2022-10-16T15:17:58.175Z,6.80
2022-10-16T15:20:37.861Z,6.00
2022-10-16T15:23:13.981Z,6.90
2022-10-16T15:25:56.233Z,6.80
2022-10-16T15:28:27.023Z,7.30
2022-10-16T15:30:57.449Z,7.80
2022-10-16T15:33:29.957Z,8.10
2022-10-16T15:35:58.238Z,7.50
2022-10-16T15:38:28.756Z,7.70
2022-10-16T15:40:58.222Z,7.80
2022-10-16T15:43:26.603Z,7.70
2022-10-16T15:46:06.299Z,8.00
2022-10-16T15:48:34.571Z,10.10
2022-10-16T15:51:07.599Z,13.40
2022-10-16T15:53:36.846Z,14.00
2022-10-16T15:56:10.365Z,16.00
2022-10-16T16:01:10.917Z,12.30
2022-10-16T16:03:43.156Z,9.60
2022-10-16T16:06:13.331Z,9.10
2022-10-16T16:08:41.477Z,8.30
2022-10-16T16:11:13.168Z,8.70
2022-10-16T16:13:42.710Z,8.30
2022-10-16T16:16:14.896Z,8.20
2022-10-16T16:18:44.312Z,9.20
2022-10-16T16:21:14.042Z,8.80
2022-10-16T16:23:42.182Z,7.70
2022-10-16T16:26:16.476Z,8.10
2022-10-16T16:28:44.873Z,10.10
2022-10-16T16:31:13.176Z,10.50
2022-10-16T16:33:41.334Z,10.00
2022-10-16T16:36:15.452Z,9.80
2022-10-16T16:41:14.577Z,9.40
2022-10-16T16:43:43.277Z,8.70
2022-10-16T16:46:12.733Z,9.70
2022-10-16T16:48:41.734Z,9.20
2022-10-16T16:51:17.201Z,10.00
2022-10-16T16:53:47.509Z,11.70
2022-10-16T16:56:16.178Z,11.90
2022-10-16T16:58:52.948Z,12.50
2022-10-16T17:01:22.991Z,10.60
2022-10-16T17:03:53.651Z,11.30
2022-10-16T17:06:24.488Z,11.20
2022-10-16T17:08:53.633Z,10.30
2022-10-16T17:11:25.373Z,11.00
2022-10-16T17:13:56.999Z,10.10
2022-10-16T17:16:29.839Z,10.20
2022-10-16T17:19:04.146Z,10.60
2022-10-16T17:21:33.248Z,14.30
2022-10-16T17:24:02.300Z,24.70
2022-10-16T17:26:31.126Z,25.20
2022-10-16T17:29:02.506Z,22.20
2022-10-16T17:31:34.014Z,19.40
2022-10-16T17:34:05.064Z,19.00
2022-10-16T17:36:36.313Z,15.90
2022-10-16T17:39:08.560Z,14.50
2022-10-16T17:41:37.251Z,13.50
2022-10-16T17:44:07.286Z,12.50
2022-10-16T17:46:40.050Z,16.00
2022-10-16T17:49:11.267Z,17.60
2022-10-16T17:51:39.569Z,16.50
2022-10-16T17:54:08.455Z,16.90
2022-10-16T17:56:36.756Z,13.50
2022-10-16T17:59:05.508Z,12.40
2022-10-16T18:01:37.080Z,11.20
2022-10-16T18:04:15.902Z,9.70
2022-10-16T18:06:45.805Z,12.20
2022-10-16T18:09:18.393Z,13.20
2022-10-16T18:11:47.274Z,12.80
2022-10-16T18:14:18.163Z,14.80
2022-10-16T18:16:46.597Z,13.40
2022-10-16T18:19:14.890Z,20.90
2022-10-16T18:21:43.122Z,46.60
2022-10-16T18:24:11.305Z,19.20
2022-10-16T18:26:39.472Z,10.90
2022-10-16T18:29:08.463Z,10.50
2022-10-16T18:31:39.145Z,9.70
2022-10-16T18:34:10.943Z,10.60
2022-10-16T18:36:40.085Z,10.40
2022-10-16T18:39:11.521Z,10.40
2022-10-16T18:41:44.864Z,9.20
2022-10-16T18:44:14.075Z,8.30
2022-10-16T18:46:42.809Z,8.00
2022-10-16T18:49:11.127Z,11.10
2022-10-16T18:51:41.363Z,11.70
2022-10-16T18:54:13.380Z,13.30
2022-10-16T18:56:41.625Z,12.40
2022-10-16T18:59:10.900Z,13.70
2022-10-16T19:01:40.117Z,10.20
2022-10-16T19:04:11.607Z,10.50
2022-10-16T19:06:46.290Z,9.60
2022-10-16T19:09:17.064Z,11.00
2022-10-16T19:11:46.125Z,12.20
2022-10-16T19:14:16.677Z,15.80
2022-10-16T19:16:45.359Z,15.90
2022-10-16T19:19:18.450Z,18.90
2022-10-16T19:21:48.475Z,16.90
2022-10-16T19:24:17.757Z,17.80
2022-10-16T19:26:45.947Z,21.50
2022-10-16T19:29:14.172Z,19.70
2022-10-16T19:31:42.505Z,19.90
2022-10-16T19:34:11.716Z,17.20
2022-10-16T19:36:41.183Z,16.20
2022-10-16T19:39:15.376Z,14.00
2022-10-16T19:41:47.770Z,16.80
2022-10-16T19:44:17.908Z,16.80
2022-10-16T19:46:50.394Z,16.40
2022-10-16T19:49:21.935Z,16.60
2022-10-16T19:51:52.151Z,17.00
2022-10-16T19:54:20.745Z,18.20
2022-10-16T19:56:48.896Z,18.80
2022-10-16T19:59:19.425Z,18.70
2022-10-16T20:01:47.980Z,18.90
2022-10-16T20:04:17.007Z,19.00
2022-10-16T20:06:46.237Z,18.50
2022-10-16T20:09:14.956Z,15.20
2022-10-16T20:11:43.421Z,15.70
2022-10-16T20:14:11.807Z,16.30
2022-10-16T20:16:43.305Z,15.60
2022-10-16T20:19:11.796Z,20.60
2022-10-16T20:21:40.630Z,15.50
2022-10-16T20:24:08.978Z,18.30
2022-10-16T20:26:40.608Z,18.00
2022-10-16T20:29:08.847Z,20.10
2022-10-16T20:31:37.886Z,33.30
2022-10-16T20:34:10.987Z,33.30
2022-10-16T20:36:42.980Z,31.70
2022-10-16T20:39:13.955Z,26.00
2022-10-16T20:41:42.535Z,23.20
2022-10-16T20:44:15.948Z,27.40
2022-10-16T20:46:44.600Z,19.30
2022-10-16T20:49:28.393Z,15.90
2022-10-16T20:52:00.901Z,16.50
2022-10-16T20:54:29.282Z,15.30
2022-10-16T20:56:58.205Z,12.70
2022-10-16T20:59:26.740Z,11.90
2022-10-16T21:01:55.256Z,11.10
2022-10-16T21:04:23.473Z,11.60
2022-10-16T21:06:51.689Z,11.90
2022-10-16T21:09:19.826Z,10.60
2022-10-16T21:11:48.027Z,9.40
2022-10-16T21:14:16.877Z,9.90
2022-10-16T21:16:45.045Z,9.50
2022-10-16T21:19:13.251Z,11.00
2022-10-16T21:21:41.483Z,11.20
2022-10-16T21:24:12.288Z,10.20
2022-10-16T21:26:44.265Z,9.20
2022-10-16T21:29:13.014Z,8.50
2022-10-16T21:31:41.967Z,9.70
2022-10-16T21:34:10.272Z,10.40
2022-10-16T21:36:41.393Z,10.60
2022-10-16T21:39:13.026Z,9.80
2022-10-16T21:41:43.302Z,9.60
2022-10-16T21:44:12.547Z,8.30
2022-10-16T21:46:43.037Z,10.30
2022-10-16T21:49:19.833Z,10.30
2022-10-16T21:51:50.682Z,9.40
2022-10-16T21:54:22.021Z,9.10
2022-10-16T21:56:52.783Z,8.40
2022-10-16T21:59:21.470Z,9.30
2022-10-16T22:01:53.423Z,10.60
2022-10-16T22:04:21.653Z,10.60
2022-10-16T22:06:49.906Z,9.70
2022-10-16T22:09:18.094Z,9.30
2022-10-16T22:11:46.363Z,9.10
2022-10-16T22:14:17.470Z,7.90
2022-10-16T22:16:47.090Z,10.20
2022-10-16T22:19:17.899Z,9.90
2022-10-16T22:21:48.930Z,9.40
2022-10-16T22:24:17.983Z,8.90
2022-10-16T22:26:46.189Z,7.80
2022-10-16T22:29:15.742Z,7.90
2022-10-16T22:31:44.923Z,9.50
2022-10-16T22:34:14.685Z,10.40
2022-10-16T22:36:43.046Z,8.50
2022-10-16T22:39:11.458Z,10.40
2022-10-16T22:41:39.654Z,8.30
2022-10-16T22:44:12.230Z,8.10
2022-10-16T22:46:41.227Z,9.00
2022-10-16T22:49:09.407Z,8.80
2022-10-16T22:51:37.749Z,9.30
2022-10-16T22:54:06.006Z,8.60
2022-10-16T22:56:34.161Z,8.00
2022-10-16T22:59:02.315Z,8.50
2022-10-16T23:01:34.674Z,9.80
2022-10-16T23:04:03.647Z,9.20
2022-10-16T23:06:31.961Z,9.20
2022-10-16T23:09:01.774Z,10.70
2022-10-16T23:11:31.032Z,9.10
2022-10-16T23:13:59.282Z,8.20
2022-10-16T23:16:27.446Z,9.00
2022-10-16T23:18:55.635Z,8.80
2022-10-16T23:21:25.314Z,8.30
2022-10-16T23:23:54.971Z,9.60
2022-10-16T23:26:25.518Z,9.60
2022-10-16T23:28:57.739Z,9.40
2022-10-16T23:31:27.703Z,11.00
2022-10-16T23:33:57.414Z,9.40
2022-10-16T23:36:26.066Z,9.80
2022-10-16T23:38:54.853Z,10.10
2022-10-16T23:41:23.210Z,9.90
2022-10-16T23:43:52.122Z,10.70
2022-10-16T23:46:20.426Z,10.30
2022-10-16T23:48:48.714Z,9.50
2022-10-16T23:51:17.378Z,9.00
2022-10-16T23:53:45.729Z,9.60
2022-10-16T23:56:14.975Z,9.50
2022-10-16T23:58:43.137Z,9.40
